createdAt,value
2022-12-06T00:00:31.754Z,949.97
2022-12-06T00:01:31.754Z,949.92
2022-12-06T00:02:31.794Z,949.98
2022-12-06T00:03:31.831Z,949.90
2022-12-06T00:04:31.705Z,949.88
2022-12-06T00:05:31.694Z,949.99
2022-12-06T00:06:31.697Z,949.99
2022-12-06T00:07:31.780Z,949.96
2022-12-06T00:08:31.658Z,949.98
2022-12-06T00:09:31.688Z,949.88
2022-12-06T00:10:31.632Z,949.98
2022-12-06T00:11:31.645Z,950.00
2022-12-06T00:12:31.610Z,949.98
2022-12-06T00:13:31.624Z,950.04
2022-12-06T00:14:31.600Z,950.02
2022-12-06T00:15:31.583Z,950.05
2022-12-06T00:16:31.637Z,950.01
2022-12-06T00:17:31.565Z,949.97
2022-12-06T00:18:31.560Z,949.96
2022-12-06T00:19:31.552Z,950.00
2022-12-06T00:20:31.534Z,949.98
2022-12-06T00:21:31.512Z,950.02
2022-12-06T00:22:31.518Z,949.94
2022-12-06T00:23:31.832Z,949.95
2022-12-06T00:24:31.517Z,949.90
2022-12-06T00:25:31.472Z,949.97
2022-12-06T00:26:31.494Z,950.00
2022-12-06T00:27:31.465Z,949.99
2022-12-06T00:28:31.431Z,949.98
2022-12-06T00:29:31.438Z,949.97
2022-12-06T00:30:31.401Z,949.93
2022-12-06T00:31:31.465Z,949.94
2022-12-06T00:32:31.475Z,949.94
2022-12-06T00:33:31.375Z,949.95
2022-12-06T00:34:31.359Z,949.94
2022-12-06T00:35:31.370Z,949.94
2022-12-06T00:36:31.377Z,949.93
2022-12-06T00:37:31.360Z,949.98
2022-12-06T00:38:31.339Z,949.92
2022-12-06T00:39:31.311Z,949.98
2022-12-06T00:40:31.297Z,949.97
2022-12-06T00:41:31.298Z,949.98
2022-12-06T00:42:31.273Z,950.02
2022-12-06T00:43:31.286Z,949.97
2022-12-06T00:44:31.284Z,950.01
2022-12-06T00:45:31.314Z,950.03
2022-12-06T00:46:31.374Z,950.02
2022-12-06T00:47:31.227Z,950.01
2022-12-06T00:48:31.202Z,950.04
2022-12-06T00:49:31.201Z,950.02
2022-12-06T00:50:31.224Z,950.00
2022-12-06T00:51:31.188Z,950.03
2022-12-06T00:52:31.159Z,949.98
2022-12-06T00:53:32.251Z,950.00
2022-12-06T00:54:31.135Z,950.03
2022-12-06T00:55:31.149Z,949.94
2022-12-06T00:56:31.129Z,950.02
2022-12-06T00:57:31.105Z,949.97
2022-12-06T00:58:31.116Z,949.98
2022-12-06T00:59:31.084Z,950.00
2022-12-06T01:00:31.068Z,949.97
2022-12-06T01:01:31.152Z,949.94
2022-12-06T01:02:31.095Z,949.99
2022-12-06T01:03:35.125Z,949.97
2022-12-06T01:04:31.022Z,949.99
2022-12-06T01:05:31.018Z,949.98
2022-12-06T01:06:31.001Z,949.94
2022-12-06T01:07:31.103Z,949.92
2022-12-06T01:08:31.038Z,949.96
2022-12-06T01:09:30.982Z,949.92
2022-12-06T01:10:30.961Z,949.90
2022-12-06T01:11:30.948Z,949.91
2022-12-06T01:12:31.904Z,949.91
2022-12-06T01:13:30.983Z,949.84
2022-12-06T01:14:30.910Z,949.90
2022-12-06T01:15:30.903Z,949.89
2022-12-06T01:16:30.998Z,949.89
2022-12-06T01:17:30.883Z,949.87
2022-12-06T01:18:30.867Z,949.82
2022-12-06T01:19:30.912Z,949.85
2022-12-06T01:20:30.850Z,949.84
2022-12-06T01:21:30.858Z,949.82
2022-12-06T01:22:30.819Z,949.82
2022-12-06T01:23:30.829Z,949.74
2022-12-06T01:24:30.799Z,949.77
2022-12-06T01:25:35.790Z,949.70
2022-12-06T01:26:31.797Z,949.73
2022-12-06T01:27:30.769Z,949.71
2022-12-06T01:28:30.762Z,949.66
2022-12-06T01:29:30.775Z,949.66
2022-12-06T01:30:30.811Z,949.68
2022-12-06T01:31:37.117Z,949.61
2022-12-06T01:32:31.727Z,949.62
2022-12-06T01:33:30.727Z,949.62
2022-12-06T01:34:30.685Z,949.55
2022-12-06T01:35:30.680Z,949.53
2022-12-06T01:36:30.668Z,949.56
2022-12-06T01:37:30.677Z,949.57
2022-12-06T01:38:30.660Z,949.55
2022-12-06T01:39:30.673Z,949.56
2022-12-06T01:40:30.614Z,949.54
2022-12-06T01:41:30.633Z,949.50
2022-12-06T01:42:30.596Z,949.51
2022-12-06T01:43:30.611Z,949.49
2022-12-06T01:44:30.582Z,949.50
2022-12-06T01:45:30.577Z,949.50
2022-12-06T01:46:30.632Z,949.50
2022-12-06T01:47:30.543Z,949.49
2022-12-06T01:48:30.531Z,949.52
2022-12-06T01:49:30.543Z,949.46
2022-12-06T01:50:30.537Z,949.45
2022-12-06T01:51:30.507Z,949.39
2022-12-06T01:52:30.485Z,949.40
2022-12-06T01:53:30.477Z,949.38
2022-12-06T01:54:30.487Z,949.40
2022-12-06T01:55:30.472Z,949.41
2022-12-06T01:56:30.462Z,949.35
2022-12-06T01:57:30.434Z,949.41
2022-12-06T01:58:30.414Z,949.38
2022-12-06T01:59:30.431Z,949.35
2022-12-06T02:00:30.395Z,949.42
2022-12-06T02:01:30.396Z,949.37
2022-12-06T02:02:30.460Z,949.39
2022-12-06T02:03:30.365Z,949.40
2022-12-06T02:04:30.349Z,949.36
2022-12-06T02:05:30.366Z,949.35
2022-12-06T02:06:30.334Z,949.37
2022-12-06T02:07:30.321Z,949.35
2022-12-06T02:08:30.333Z,949.34
2022-12-06T02:09:30.330Z,949.34
2022-12-06T02:10:30.279Z,949.28
2022-12-06T02:11:34.980Z,949.27
2022-12-06T02:12:31.281Z,949.28
2022-12-06T02:13:30.251Z,949.25
2022-12-06T02:14:30.284Z,949.25
2022-12-06T02:15:30.250Z,949.20
2022-12-06T02:16:30.273Z,949.24
2022-12-06T02:17:30.207Z,949.27
2022-12-06T02:18:30.193Z,949.23
2022-12-06T02:19:30.192Z,949.22
2022-12-06T02:20:30.212Z,949.23
2022-12-06T02:21:30.184Z,949.19
2022-12-06T02:22:30.161Z,949.16
2022-12-06T02:23:30.140Z,949.20
2022-12-06T02:24:30.128Z,949.19
2022-12-06T02:25:33.870Z,949.22
2022-12-06T02:26:30.136Z,949.19
2022-12-06T02:27:30.111Z,949.19
2022-12-06T02:28:30.080Z,949.17
2022-12-06T02:29:30.079Z,949.20
2022-12-06T02:30:30.160Z,949.12
2022-12-06T02:31:30.177Z,949.17
2022-12-06T02:32:30.076Z,949.06
2022-12-06T02:33:30.032Z,949.06
2022-12-06T02:34:30.110Z,949.04
2022-12-06T02:35:30.013Z,949.00
2022-12-06T02:36:29.995Z,949.01
2022-12-06T02:37:29.984Z,948.96
2022-12-06T02:38:30.020Z,948.98
2022-12-06T02:39:29.963Z,948.99
2022-12-06T02:40:29.946Z,948.99
2022-12-06T02:41:29.937Z,949.00
2022-12-06T02:42:29.954Z,948.99
2022-12-06T02:43:29.933Z,948.98
2022-12-06T02:44:29.918Z,949.01
2022-12-06T02:45:29.892Z,948.98
2022-12-06T02:46:30.068Z,949.00
2022-12-06T02:47:29.869Z,949.00
2022-12-06T02:48:29.875Z,948.97
2022-12-06T02:49:29.847Z,949.03
2022-12-06T02:50:29.856Z,949.01
2022-12-06T02:51:29.826Z,949.01
2022-12-06T02:52:29.814Z,948.99
2022-12-06T02:53:29.807Z,948.98
2022-12-06T02:54:29.805Z,948.95
2022-12-06T02:55:29.798Z,948.98
2022-12-06T02:56:29.820Z,948.97
2022-12-06T02:57:29.756Z,948.95
2022-12-06T02:58:29.745Z,948.98
2022-12-06T02:59:29.751Z,948.94
2022-12-06T03:00:29.745Z,948.94
2022-12-06T03:01:29.737Z,948.95
2022-12-06T03:02:29.748Z,948.90
2022-12-06T03:03:29.710Z,948.91
2022-12-06T03:04:29.682Z,948.90
2022-12-06T03:05:29.682Z,948.90
2022-12-06T03:06:29.657Z,948.89
2022-12-06T03:07:29.644Z,948.90
2022-12-06T03:08:29.668Z,948.91
2022-12-06T03:09:29.619Z,948.87
2022-12-06T03:10:29.633Z,948.89
2022-12-06T03:11:29.601Z,948.84
2022-12-06T03:12:29.598Z,948.88
2022-12-06T03:13:29.577Z,948.88
2022-12-06T03:14:29.589Z,948.87
2022-12-06T03:15:29.980Z,948.85
2022-12-06T03:16:29.569Z,948.81
2022-12-06T03:17:29.533Z,948.81
2022-12-06T03:18:29.522Z,948.87
2022-12-06T03:19:29.505Z,948.88
2022-12-06T03:20:29.522Z,948.88
2022-12-06T03:21:29.516Z,948.83
2022-12-06T03:22:29.481Z,948.83
2022-12-06T03:23:29.468Z,948.89
2022-12-06T03:24:29.458Z,948.85
2022-12-06T03:25:29.438Z,948.80
2022-12-06T03:26:29.476Z,948.86
2022-12-06T03:27:29.416Z,948.81
2022-12-06T03:28:29.411Z,948.84
2022-12-06T03:29:29.415Z,948.80
2022-12-06T03:30:29.389Z,948.81
2022-12-06T03:31:29.464Z,948.79
2022-12-06T03:32:29.412Z,948.79
2022-12-06T03:33:29.348Z,948.81
2022-12-06T03:34:29.368Z,948.77
2022-12-06T03:35:29.332Z,948.78
2022-12-06T03:36:29.316Z,948.75
2022-12-06T03:37:29.305Z,948.71
2022-12-06T03:38:29.318Z,948.74
2022-12-06T03:39:29.314Z,948.68
2022-12-06T03:40:29.275Z,948.70
2022-12-06T03:41:29.258Z,948.68
2022-12-06T03:42:29.253Z,948.75
2022-12-06T03:43:29.256Z,948.75
2022-12-06T03:44:29.248Z,948.73
2022-12-06T03:45:29.311Z,948.74
2022-12-06T03:46:29.302Z,948.76
2022-12-06T03:47:29.210Z,948.79
2022-12-06T03:48:29.214Z,948.73
2022-12-06T03:49:29.168Z,948.74
2022-12-06T03:50:29.198Z,948.74
2022-12-06T03:51:29.149Z,948.75
2022-12-06T03:52:29.209Z,948.74
2022-12-06T03:53:29.148Z,948.71
2022-12-06T03:54:29.118Z,948.69
2022-12-06T03:55:29.126Z,948.72
2022-12-06T03:56:29.119Z,948.68
2022-12-06T03:57:29.089Z,948.69
2022-12-06T03:58:29.079Z,948.75
2022-12-06T03:59:29.062Z,948.74
2022-12-06T04:00:29.071Z,948.73
2022-12-06T04:01:29.085Z,948.70
2022-12-06T04:02:29.048Z,948.73
2022-12-06T04:03:29.079Z,948.68
2022-12-06T04:04:29.024Z,948.67
2022-12-06T04:05:29.012Z,948.66
2022-12-06T04:06:28.987Z,948.67
2022-12-06T04:07:28.968Z,948.64
2022-12-06T04:08:28.975Z,948.58
2022-12-06T04:09:28.948Z,948.64
2022-12-06T04:10:28.960Z,948.61
2022-12-06T04:11:28.968Z,948.58
2022-12-06T04:12:28.920Z,948.58
2022-12-06T04:13:28.902Z,948.58
2022-12-06T04:14:28.907Z,948.58
2022-12-06T04:15:29.019Z,948.55
2022-12-06T04:16:28.957Z,948.56
2022-12-06T04:17:28.856Z,948.57
2022-12-06T04:18:28.848Z,948.56
2022-12-06T04:19:31.560Z,948.59
2022-12-06T04:20:28.843Z,948.52
2022-12-06T04:21:28.832Z,948.57
2022-12-06T04:22:28.827Z,948.55
2022-12-06T04:23:28.792Z,948.55
2022-12-06T04:24:28.783Z,948.55
2022-12-06T04:25:28.765Z,948.56
2022-12-06T04:26:28.796Z,948.56
2022-12-06T04:27:28.747Z,948.53
2022-12-06T04:28:28.739Z,948.53
2022-12-06T04:29:28.725Z,948.57
2022-12-06T04:30:28.735Z,948.53
2022-12-06T04:31:28.739Z,948.53
2022-12-06T04:32:28.726Z,948.50
2022-12-06T04:33:28.683Z,948.49
2022-12-06T04:34:28.675Z,948.50
2022-12-06T04:35:28.690Z,948.45
2022-12-06T04:36:28.647Z,948.45
2022-12-06T04:37:28.631Z,948.52
2022-12-06T04:38:28.661Z,948.48
2022-12-06T04:39:28.630Z,948.49
2022-12-06T04:40:28.626Z,948.45
2022-12-06T04:41:28.584Z,948.45
2022-12-06T04:42:28.580Z,948.43
2022-12-06T04:43:28.566Z,948.44
2022-12-06T04:44:28.594Z,948.42
2022-12-06T04:45:28.545Z,948.39
2022-12-06T04:46:28.598Z,948.41
2022-12-06T04:47:28.523Z,948.38
2022-12-06T04:48:28.520Z,948.41
2022-12-06T04:49:28.505Z,948.42
2022-12-06T04:50:28.531Z,948.41
2022-12-06T04:51:28.489Z,948.42
2022-12-06T04:52:34.079Z,948.43
2022-12-06T04:53:29.452Z,948.39
2022-12-06T04:54:28.470Z,948.39
2022-12-06T04:55:28.449Z,948.36
2022-12-06T04:56:28.447Z,948.35
2022-12-06T04:57:28.408Z,948.33
2022-12-06T04:58:28.400Z,948.36
2022-12-06T04:59:28.388Z,948.33
2022-12-06T05:00:28.468Z,948.32
2022-12-06T05:01:28.370Z,948.31
2022-12-06T05:02:28.393Z,948.34
2022-12-06T05:03:28.419Z,948.31
2022-12-06T05:04:28.422Z,948.30
2022-12-06T05:05:28.320Z,948.26
2022-12-06T05:06:28.311Z,948.30
2022-12-06T05:07:28.335Z,948.28
2022-12-06T05:08:28.302Z,948.35
2022-12-06T05:09:28.296Z,948.29
2022-12-06T05:10:28.279Z,948.35
2022-12-06T05:11:28.251Z,948.36
2022-12-06T05:12:28.253Z,948.33
2022-12-06T05:13:28.252Z,948.34
2022-12-06T05:14:28.238Z,948.34
2022-12-06T05:15:29.367Z,948.29
2022-12-06T05:16:28.297Z,948.29
2022-12-06T05:17:28.187Z,948.27
2022-12-06T05:18:28.200Z,948.30
2022-12-06T05:19:28.182Z,948.29
2022-12-06T05:20:28.168Z,948.35
2022-12-06T05:21:28.141Z,948.31
2022-12-06T05:22:28.130Z,948.31
2022-12-06T05:23:28.135Z,948.34
2022-12-06T05:24:28.132Z,948.33
2022-12-06T05:25:28.239Z,948.33
2022-12-06T05:26:28.110Z,948.35
2022-12-06T05:27:32.909Z,948.34
2022-12-06T05:28:29.066Z,948.39
2022-12-06T05:29:28.074Z,948.38
2022-12-06T05:30:28.046Z,948.37
2022-12-06T05:31:28.144Z,948.32
2022-12-06T05:32:28.053Z,948.36
2022-12-06T05:33:28.026Z,948.31
2022-12-06T05:34:27.998Z,948.31
2022-12-06T05:35:28.065Z,948.32
2022-12-06T05:36:27.977Z,948.30
2022-12-06T05:37:27.981Z,948.33
2022-12-06T05:38:27.968Z,948.31
2022-12-06T05:39:27.978Z,948.27
2022-12-06T05:40:27.980Z,948.26
2022-12-06T05:41:27.916Z,948.28
2022-12-06T05:42:27.933Z,948.21
2022-12-06T05:43:27.896Z,948.29
2022-12-06T05:44:27.900Z,948.28
2022-12-06T05:45:27.873Z,948.29
2022-12-06T05:46:27.911Z,948.25
2022-12-06T05:47:27.904Z,948.23
2022-12-06T05:48:27.937Z,948.22
2022-12-06T05:49:27.845Z,948.25
2022-12-06T05:50:27.853Z,948.18
2022-12-06T05:51:27.807Z,948.20
2022-12-06T05:52:27.806Z,948.25
2022-12-06T05:53:27.783Z,948.21
2022-12-06T05:54:27.776Z,948.27
2022-12-06T05:55:27.797Z,948.21
2022-12-06T05:56:28.381Z,948.18
2022-12-06T05:57:27.738Z,948.27
2022-12-06T05:58:27.751Z,948.20
2022-12-06T05:59:27.716Z,948.24
2022-12-06T06:00:27.711Z,948.24
2022-12-06T06:01:27.712Z,948.24
2022-12-06T06:02:27.869Z,948.21
2022-12-06T06:03:27.715Z,948.18
2022-12-06T06:04:27.682Z,948.23
2022-12-06T06:05:27.666Z,948.21
2022-12-06T06:06:27.661Z,948.20
2022-12-06T06:07:27.647Z,948.27
2022-12-06T06:08:27.636Z,948.23
2022-12-06T06:09:27.637Z,948.24
2022-12-06T06:10:27.596Z,948.25
2022-12-06T06:11:27.597Z,948.22
2022-12-06T06:12:27.588Z,948.23
2022-12-06T06:13:27.576Z,948.25
2022-12-06T06:14:27.567Z,948.22
2022-12-06T06:15:27.532Z,948.21
2022-12-06T06:16:27.592Z,948.26
2022-12-06T06:17:27.509Z,948.19
2022-12-06T06:18:27.521Z,948.18
2022-12-06T06:19:27.490Z,948.17
2022-12-06T06:20:27.495Z,948.22
2022-12-06T06:21:27.464Z,948.18
2022-12-06T06:22:27.464Z,948.13
2022-12-06T06:23:27.474Z,948.18
2022-12-06T06:24:27.437Z,948.19
2022-12-06T06:25:27.422Z,948.23
2022-12-06T06:26:27.450Z,948.18
2022-12-06T06:27:27.417Z,948.14
2022-12-06T06:28:27.410Z,948.17
2022-12-06T06:29:27.380Z,948.17
2022-12-06T06:30:27.389Z,948.22
2022-12-06T06:31:27.432Z,948.24
2022-12-06T06:32:27.378Z,948.23
2022-12-06T06:33:27.353Z,948.22
2022-12-06T06:34:27.339Z,948.18
2022-12-06T06:35:27.310Z,948.25
2022-12-06T06:36:27.321Z,948.19
2022-12-06T06:37:27.287Z,948.22
2022-12-06T06:38:27.300Z,948.25
2022-12-06T06:39:27.268Z,948.23
2022-12-06T06:40:27.278Z,948.23
2022-12-06T06:41:27.242Z,948.26
2022-12-06T06:42:27.242Z,948.27
2022-12-06T06:43:27.244Z,948.28
2022-12-06T06:44:27.232Z,948.27
2022-12-06T06:45:29.097Z,948.23
2022-12-06T06:46:27.243Z,948.27
2022-12-06T06:47:27.174Z,948.29
2022-12-06T06:48:27.184Z,948.27
2022-12-06T06:49:27.158Z,948.22
2022-12-06T06:50:27.164Z,948.24
2022-12-06T06:51:27.131Z,948.18
2022-12-06T06:52:27.149Z,948.22
2022-12-06T06:53:27.121Z,948.20
2022-12-06T06:54:27.098Z,948.20
2022-12-06T06:55:27.085Z,948.22
2022-12-06T06:56:27.094Z,948.27
2022-12-06T06:57:27.087Z,948.23
2022-12-06T06:58:27.076Z,948.28
2022-12-06T06:59:27.063Z,948.25
2022-12-06T07:00:27.034Z,948.21
2022-12-06T07:01:27.124Z,948.26
2022-12-06T07:02:27.070Z,948.22
2022-12-06T07:03:27.021Z,948.24
2022-12-06T07:04:26.993Z,948.27
2022-12-06T07:05:26.975Z,948.27
2022-12-06T07:06:26.966Z,948.26
2022-12-06T07:07:26.952Z,948.25
2022-12-06T07:08:26.986Z,948.26
2022-12-06T07:09:26.937Z,948.26
2022-12-06T07:10:26.922Z,948.26
2022-12-06T07:11:26.905Z,948.31
2022-12-06T07:12:26.897Z,948.28
2022-12-06T07:13:26.916Z,948.30
2022-12-06T07:14:26.889Z,948.31
2022-12-06T07:15:26.887Z,948.29
2022-12-06T07:16:26.925Z,948.29
2022-12-06T07:17:26.843Z,948.34
2022-12-06T07:18:26.859Z,948.29
2022-12-06T07:19:26.825Z,948.32
2022-12-06T07:20:26.825Z,948.33
2022-12-06T07:21:26.821Z,948.33
2022-12-06T07:22:26.807Z,948.37
2022-12-06T07:23:26.780Z,948.35
2022-12-06T07:24:26.761Z,948.34
2022-12-06T07:25:26.755Z,948.34
2022-12-06T07:26:26.769Z,948.32
2022-12-06T07:27:26.732Z,948.33
2022-12-06T07:28:26.739Z,948.34
2022-12-06T07:29:26.743Z,948.37
2022-12-06T07:30:28.487Z,948.36
2022-12-06T07:31:26.810Z,948.36
2022-12-06T07:32:26.741Z,948.42
2022-12-06T07:33:26.671Z,948.37
2022-12-06T07:34:26.651Z,948.35
2022-12-06T07:35:42.047Z,948.32
2022-12-06T07:36:27.646Z,948.33
2022-12-06T07:37:28.853Z,948.30
2022-12-06T07:38:26.640Z,948.30
2022-12-06T07:39:26.598Z,948.26
2022-12-06T07:40:48.344Z,948.33
2022-12-06T07:41:27.575Z,948.31
2022-12-06T07:42:26.580Z,948.30
2022-12-06T07:43:26.559Z,948.29
2022-12-06T07:44:26.556Z,948.31
2022-12-06T07:45:26.550Z,948.27
2022-12-06T07:46:26.576Z,948.27
2022-12-06T07:47:26.526Z,948.29
2022-12-06T07:48:26.497Z,948.27
2022-12-06T07:49:26.489Z,948.25
2022-12-06T07:50:26.508Z,948.24
2022-12-06T07:51:26.465Z,948.31
2022-12-06T07:52:26.447Z,948.22
2022-12-06T07:53:26.450Z,948.32
2022-12-06T07:54:26.448Z,948.33
2022-12-06T07:55:26.429Z,948.32
2022-12-06T07:56:26.449Z,948.32
2022-12-06T07:57:26.397Z,948.30
2022-12-06T07:58:26.404Z,948.33
2022-12-06T07:59:26.401Z,948.31
2022-12-06T08:00:26.357Z,948.28
2022-12-06T08:01:26.387Z,948.24
2022-12-06T08:02:26.347Z,948.25
2022-12-06T08:03:26.348Z,948.21
2022-12-06T08:04:26.437Z,948.26
2022-12-06T08:05:26.308Z,948.27
2022-12-06T08:06:26.291Z,948.24
2022-12-06T08:07:26.291Z,948.26
2022-12-06T08:08:28.927Z,948.25
2022-12-06T08:09:26.338Z,948.22
2022-12-06T08:10:26.301Z,948.20
2022-12-06T08:11:26.255Z,948.25
2022-12-06T08:12:26.244Z,948.24
2022-12-06T08:13:26.227Z,948.20
2022-12-06T08:14:26.224Z,948.19
2022-12-06T08:15:26.220Z,948.21
2022-12-06T08:16:26.330Z,948.19
2022-12-06T08:17:26.172Z,948.16
2022-12-06T08:18:26.160Z,948.16
2022-12-06T08:19:26.167Z,948.14
2022-12-06T08:20:26.234Z,948.14
2022-12-06T08:21:26.139Z,948.13
2022-12-06T08:22:26.131Z,948.14
2022-12-06T08:23:32.221Z,948.15
2022-12-06T08:24:27.090Z,948.17
2022-12-06T08:25:34.832Z,948.16
2022-12-06T08:26:26.257Z,948.24
2022-12-06T08:27:26.234Z,948.20
2022-12-06T08:28:26.097Z,948.20
2022-12-06T08:29:26.204Z,948.21
2022-12-06T08:30:26.085Z,948.26
2022-12-06T08:31:26.260Z,948.22
2022-12-06T08:32:26.021Z,948.26
2022-12-06T08:33:26.020Z,948.28
2022-12-06T08:34:25.982Z,948.22
2022-12-06T08:35:25.988Z,948.17
2022-12-06T08:36:25.955Z,948.24
2022-12-06T08:37:25.951Z,948.21
2022-12-06T08:38:25.955Z,948.18
2022-12-06T08:39:25.927Z,948.17
2022-12-06T08:40:26.050Z,948.26
2022-12-06T08:41:25.908Z,948.19
2022-12-06T08:42:25.888Z,948.17
2022-12-06T08:43:25.883Z,948.20
2022-12-06T08:44:25.872Z,948.22
2022-12-06T08:45:25.881Z,948.20
2022-12-06T08:46:25.970Z,948.21
2022-12-06T08:47:25.857Z,948.20
2022-12-06T08:48:25.822Z,948.21
2022-12-06T08:49:25.847Z,948.26
2022-12-06T08:50:25.860Z,948.26
2022-12-06T08:51:25.810Z,948.24
2022-12-06T08:52:25.778Z,948.18
2022-12-06T08:53:25.773Z,948.20
2022-12-06T08:54:25.773Z,948.23
2022-12-06T08:55:25.825Z,948.25
2022-12-06T08:56:25.732Z,948.21
2022-12-06T08:57:25.729Z,948.25
2022-12-06T08:58:25.880Z,948.17
2022-12-06T08:59:25.724Z,948.24
2022-12-06T09:00:25.702Z,948.25
2022-12-06T09:01:25.711Z,948.23
2022-12-06T09:02:25.677Z,948.28
2022-12-06T09:03:25.679Z,948.23
2022-12-06T09:04:25.687Z,948.21
2022-12-06T09:05:25.703Z,948.26
2022-12-06T09:06:25.622Z,948.21
2022-12-06T09:07:25.752Z,948.24
2022-12-06T09:08:25.638Z,948.22
2022-12-06T09:09:25.592Z,948.23
2022-12-06T09:10:25.618Z,948.24
2022-12-06T09:11:25.588Z,948.22
2022-12-06T09:12:25.551Z,948.19
2022-12-06T09:13:25.548Z,948.22
2022-12-06T09:14:27.104Z,948.17
2022-12-06T09:15:25.551Z,948.24
2022-12-06T09:16:25.635Z,948.22
2022-12-06T09:17:25.515Z,948.18
2022-12-06T09:18:25.490Z,948.23
2022-12-06T09:19:25.501Z,948.22
2022-12-06T09:20:25.463Z,948.22
2022-12-06T09:21:25.672Z,948.23
2022-12-06T09:22:25.441Z,948.23
2022-12-06T09:23:25.449Z,948.22
2022-12-06T09:24:25.428Z,948.23
2022-12-06T09:25:25.430Z,948.19
2022-12-06T09:26:25.427Z,948.25
2022-12-06T09:27:25.419Z,948.23
2022-12-06T09:28:25.369Z,948.24
2022-12-06T09:29:25.377Z,948.20
2022-12-06T09:30:25.361Z,948.21
2022-12-06T09:31:25.450Z,948.22
2022-12-06T09:32:25.334Z,948.18
2022-12-06T09:33:25.324Z,948.25
2022-12-06T09:34:25.305Z,948.20
2022-12-06T09:35:25.502Z,948.22
2022-12-06T09:36:25.337Z,948.19
2022-12-06T09:37:25.283Z,948.22
2022-12-06T09:38:25.262Z,948.16
2022-12-06T09:39:25.269Z,948.15
2022-12-06T09:40:25.255Z,948.13
2022-12-06T09:41:26.045Z,948.10
2022-12-06T09:42:25.887Z,948.14
2022-12-06T09:43:25.207Z,948.12
2022-12-06T09:44:25.195Z,948.09
2022-12-06T09:45:25.204Z,948.09
2022-12-06T09:46:25.244Z,948.10
2022-12-06T09:47:25.172Z,948.09
2022-12-06T09:48:25.153Z,948.03
2022-12-06T09:49:25.163Z,948.03
2022-12-06T09:50:25.125Z,948.02
2022-12-06T09:51:25.117Z,948.05
2022-12-06T09:52:25.130Z,948.01
2022-12-06T09:53:25.128Z,948.03
2022-12-06T09:54:25.107Z,948.06
2022-12-06T09:55:25.092Z,948.06
2022-12-06T09:56:25.080Z,948.00
2022-12-06T09:57:25.053Z,947.94
2022-12-06T09:58:25.036Z,947.99
2022-12-06T09:59:25.034Z,947.98
2022-12-06T10:00:25.032Z,947.96
2022-12-06T10:01:25.057Z,947.96
2022-12-06T10:02:25.122Z,947.96
2022-12-06T10:03:25.081Z,947.92
2022-12-06T10:04:24.967Z,947.94
2022-12-06T10:05:24.980Z,947.96
2022-12-06T10:06:24.965Z,947.91
2022-12-06T10:07:24.960Z,947.93
2022-12-06T10:08:25.152Z,947.89
2022-12-06T10:09:24.913Z,947.84
2022-12-06T10:10:24.906Z,947.88
2022-12-06T10:11:24.913Z,947.84
2022-12-06T10:12:24.902Z,947.80
2022-12-06T10:13:24.881Z,947.80
2022-12-06T10:14:24.874Z,947.78
2022-12-06T10:15:24.858Z,947.79
2022-12-06T10:16:24.913Z,947.78
2022-12-06T10:17:24.824Z,947.84
2022-12-06T10:18:24.819Z,947.77
2022-12-06T10:19:24.803Z,947.74
2022-12-06T10:20:24.804Z,947.76
2022-12-06T10:21:24.798Z,947.74
2022-12-06T10:22:24.764Z,947.73
2022-12-06T10:23:24.796Z,947.75
2022-12-06T10:24:24.745Z,947.73
2022-12-06T10:25:24.768Z,947.69
2022-12-06T10:26:24.723Z,947.72
2022-12-06T10:27:24.779Z,947.68
2022-12-06T10:28:25.469Z,947.69
2022-12-06T10:29:29.562Z,947.63
2022-12-06T10:30:25.742Z,947.66
2022-12-06T10:31:24.786Z,947.65
2022-12-06T10:32:24.660Z,947.66
2022-12-06T10:33:24.720Z,947.65
2022-12-06T10:34:24.639Z,947.67
2022-12-06T10:35:24.672Z,947.63
2022-12-06T10:36:24.635Z,947.65
2022-12-06T10:37:24.614Z,947.66
2022-12-06T10:38:24.608Z,947.67
2022-12-06T10:39:24.610Z,947.66
2022-12-06T10:40:24.581Z,947.71
2022-12-06T10:41:24.558Z,947.67
2022-12-06T10:42:24.697Z,947.68
2022-12-06T10:43:24.570Z,947.64
2022-12-06T10:44:24.527Z,947.65
2022-12-06T10:45:25.068Z,947.69
2022-12-06T10:46:24.595Z,947.64
2022-12-06T10:47:24.513Z,947.69
2022-12-06T10:48:24.488Z,947.68
2022-12-06T10:49:24.470Z,947.68
2022-12-06T10:50:24.451Z,947.73
2022-12-06T10:51:25.551Z,947.66
2022-12-06T10:52:25.374Z,947.67
2022-12-06T10:53:24.425Z,947.64
2022-12-06T10:54:24.416Z,947.66
2022-12-06T10:55:24.424Z,947.62
2022-12-06T10:56:24.388Z,947.64
2022-12-06T10:57:24.384Z,947.69
2022-12-06T10:58:24.359Z,947.64
2022-12-06T10:59:24.418Z,947.66
2022-12-06T11:00:24.390Z,947.64
2022-12-06T11:01:24.402Z,947.62
2022-12-06T11:02:24.433Z,947.66
2022-12-06T11:03:24.310Z,947.65
2022-12-06T11:04:24.299Z,947.63
2022-12-06T11:05:24.310Z,947.63
2022-12-06T11:06:24.281Z,947.61
2022-12-06T11:07:24.276Z,947.66
2022-12-06T11:08:24.388Z,947.66
2022-12-06T11:09:24.245Z,947.67
2022-12-06T11:10:24.229Z,947.63
2022-12-06T11:11:24.221Z,947.60
2022-12-06T11:12:28.057Z,947.59
2022-12-06T11:13:25.196Z,947.62
2022-12-06T11:14:24.180Z,947.57
2022-12-06T11:15:24.191Z,947.59
2022-12-06T11:16:24.252Z,947.58
2022-12-06T11:17:24.171Z,947.62
2022-12-06T11:18:24.142Z,947.58
2022-12-06T11:19:24.137Z,947.54
2022-12-06T11:20:24.113Z,947.59
2022-12-06T11:21:24.128Z,947.56
2022-12-06T11:22:24.098Z,947.58
2022-12-06T11:23:24.107Z,947.51
2022-12-06T11:24:24.071Z,947.51
2022-12-06T11:25:24.089Z,947.57
2022-12-06T11:26:24.053Z,947.52
2022-12-06T11:27:24.040Z,947.48
2022-12-06T11:28:24.031Z,947.48
2022-12-06T11:29:24.018Z,947.57
2022-12-06T11:30:24.036Z,947.54
2022-12-06T11:31:24.066Z,947.55
2022-12-06T11:32:24.003Z,947.54
2022-12-06T11:33:23.972Z,947.53
2022-12-06T11:34:23.965Z,947.59
2022-12-06T11:35:23.949Z,947.58
2022-12-06T11:36:23.959Z,947.55
2022-12-06T11:37:23.932Z,947.54
2022-12-06T11:38:23.921Z,947.59
2022-12-06T11:39:23.901Z,947.60
2022-12-06T11:40:23.915Z,947.60
2022-12-06T11:41:23.902Z,947.63
2022-12-06T11:42:23.875Z,947.59
2022-12-06T11:43:23.889Z,947.61
2022-12-06T11:44:23.852Z,947.58
2022-12-06T11:45:23.839Z,947.56
2022-12-06T11:46:23.938Z,947.59
2022-12-06T11:47:23.831Z,947.60
2022-12-06T11:48:23.815Z,947.58
2022-12-06T11:49:23.815Z,947.57
2022-12-06T11:50:23.798Z,947.56
2022-12-06T11:51:23.767Z,947.53
2022-12-06T11:52:23.762Z,947.58
2022-12-06T11:53:23.747Z,947.55
2022-12-06T11:54:23.764Z,947.51
2022-12-06T11:55:23.724Z,947.51
2022-12-06T11:56:23.731Z,947.52
2022-12-06T11:57:23.721Z,947.54
2022-12-06T11:58:23.700Z,947.50
2022-12-06T11:59:23.701Z,947.50
2022-12-06T12:00:23.676Z,947.47
2022-12-06T12:01:23.670Z,947.47
2022-12-06T12:02:23.740Z,947.47
2022-12-06T12:03:23.681Z,947.41
2022-12-06T12:04:23.628Z,947.36
2022-12-06T12:05:23.609Z,947.37
2022-12-06T12:06:23.629Z,947.34
2022-12-06T12:07:23.592Z,947.31
2022-12-06T12:08:26.217Z,947.29
2022-12-06T12:09:24.580Z,947.34
2022-12-06T12:10:23.573Z,947.31
2022-12-06T12:11:23.546Z,947.30
2022-12-06T12:12:23.561Z,947.30
2022-12-06T12:13:23.525Z,947.30
2022-12-06T12:14:23.516Z,947.27
2022-12-06T12:15:23.532Z,947.26
2022-12-06T12:16:23.615Z,947.23
2022-12-06T12:17:23.480Z,947.21
2022-12-06T12:18:23.470Z,947.25
2022-12-06T12:19:23.475Z,947.25
2022-12-06T12:20:23.473Z,947.22
2022-12-06T12:21:23.442Z,947.23
2022-12-06T12:22:23.448Z,947.17
2022-12-06T12:23:23.411Z,947.13
2022-12-06T12:24:23.406Z,947.14
2022-12-06T12:25:23.879Z,947.14
2022-12-06T12:26:23.388Z,947.15
2022-12-06T12:27:28.394Z,947.09
2022-12-06T12:28:24.480Z,947.15